Baltic Freedom — 9HA3690 — position and weather

sailwx.info

Track history (hours):
 
Tides and Currents Weather Stations Pressure Air Temp Water Temp Dewpoint Dewpoint Depression Visibility Wind Speed Wind Dir Waves Ship Positions

Baltic Freedom

Last reported at 2018-Jun-20 10:15 UTC. Time now 2018-Jun-20 11:14 UTC.
Position N 60°19' E 028°44'.

Length 182 m; draft 6.9 m.

Type: Ship. MMSI: 229881000.

Date/timePositionNaut miles runAvg speedWind from/ knotsBaromVisibWave heightAir tempDewpointWater temp
2018-Jun-20 10:15N 60°19' E 028°44'0 0.0
2018-Jun-20 09:46N 60°19' E 028°44'0 0.0
2018-Jun-20 09:30N 60°19' E 028°44'0 0.0
2018-Jun-20 08:49N 60°19' E 028°44'0 0.0
2018-Jun-20 08:22N 60°19' E 028°44'0 0.0
2018-Jun-20 07:59N 60°19' E 028°44'0 0.0
2018-Jun-20 07:28N 60°19' E 028°44'0 0.0
2018-Jun-20 06:58N 60°19' E 028°44'0 0.0
2018-Jun-20 06:27N 60°19' E 028°44'0 0.0
2018-Jun-20 05:57N 60°19' E 028°44'0 0.0
2018-Jun-20 05:28N 60°19' E 028°44'0 0.0
2018-Jun-20 05:00N 60°19' E 028°44'0 0.0
2018-Jun-20 04:30N 60°19' E 028°44'0 0.0
2018-Jun-20 03:57N 60°19' E 028°44'0 0.0
2018-Jun-20 03:29N 60°19' E 028°44'0 0.0
2018-Jun-20 02:59N 60°19' E 028°44'0 0.0
2018-Jun-20 02:28N 60°19' E 028°44'0 0.0
2018-Jun-20 01:59N 60°19' E 028°44'0 0.0
2018-Jun-20 01:29N 60°19' E 028°44'0 0.0
2018-Jun-20 01:00N 60°19' E 028°44'0 0.0
2018-Jun-20 00:28N 60°19' E 028°44'0 0.0
2018-Jun-19 23:59N 60°19' E 028°44'0 0.1
2018-Jun-19 23:30N 60°19' E 028°44'1 2.7
2018-Jun-19 23:00N 60°18' E 028°44'4 7.1
2018-Jun-19 22:31N 60°15' E 028°49'4 8.5
2018-Jun-19 22:00N 60°11' E 028°44'5 9.5
2018-Jun-19 21:30N 60°09' E 028°36'612.0
2018-Jun-19 21:01N 60°06' E 028°26'4 8.8
2018-Jun-19 20:30N 60°03' E 028°33'2 3.8
2018-Jun-19 20:00N 60°01' E 028°30'0 0.6
2018-Jun-19 19:30N 60°01' E 028°30'0 0.0
2018-Jun-19 18:57N 60°01' E 028°30'0 0.1
2018-Jun-19 18:29N 60°01' E 028°30'0 0.1
2018-Jun-19 17:56N 60°01' E 028°30'0 0.0
2018-Jun-19 17:30N 60°01' E 028°30'0 0.1
2018-Jun-19 16:58N 60°01' E 028°30'0 0.0
2018-Jun-19 16:29N 60°01' E 028°30'0 0.0
2018-Jun-19 15:55N 60°01' E 028°30'0 0.0
2018-Jun-19 15:25N 60°01' E 028°30'0 0.0
2018-Jun-19 15:01N 60°01' E 028°30'0 0.0
2018-Jun-19 14:29N 60°01' E 028°30'0 0.2
2018-Jun-19 14:00N 60°01' E 028°30'0 0.0
2018-Jun-19 13:30N 60°01' E 028°30'0 0.0
2018-Jun-19 12:57N 60°01' E 028°30'0 0.2
2018-Jun-19 12:29N 60°01' E 028°29'0 0.0
2018-Jun-19 11:59N 60°01' E 028°29'0 0.0
2018-Jun-19 11:29N 60°01' E 028°29'0 0.0
2018-Jun-19 10:59N 60°01' E 028°29'0 0.0
2018-Jun-19 10:26N 60°01' E 028°29'0 0.1
2018-Jun-19 10:00N 60°01' E 028°29'0 0.0
2018-Jun-19 09:26N 60°01' E 028°29'0 0.0
2018-Jun-19 08:58N 60°01' E 028°29'0 0.0
2018-Jun-19 08:28N 60°01' E 028°29'0 0.0
2018-Jun-19 07:58N 60°01' E 028°29'0 0.0
2018-Jun-19 07:30N 60°01' E 028°29'0 0.0
2018-Jun-19 07:00N 60°01' E 028°29'0 0.0
2018-Jun-19 06:30N 60°01' E 028°29'0 0.0
2018-Jun-19 06:00N 60°01' E 028°29'0 0.0
2018-Jun-19 05:23N 60°01' E 028°29'0 0.0
2018-Jun-19 04:59N 60°01' E 028°29'0 0.0
2018-Jun-19 04:31N 60°01' E 028°29'0 0.0
2018-Jun-19 03:59N 60°01' E 028°29'0 0.0
2018-Jun-19 03:28N 60°01' E 028°29'0 0.0
2018-Jun-19 02:59N 60°01' E 028°29'0 0.0
2018-Jun-19 02:28N 60°01' E 028°29'0 0.0
2018-Jun-19 01:58N 60°01' E 028°30'0 0.0
2018-Jun-19 01:28N 60°01' E 028°30'0 0.0
2018-Jun-19 00:54N 60°01' E 028°30'0 0.0
2018-Jun-19 00:30N 60°01' E 028°30'0 0.0
2018-Jun-19 00:00N 60°01' E 028°30'0 0.0
2018-Jun-18 23:30N 60°01' E 028°30'0 0.0
2018-Jun-18 22:57N 60°01' E 028°30'0 0.0
2018-Jun-18 22:27N 60°01' E 028°30'0 0.0
2018-Jun-18 21:59N 60°01' E 028°30'0 0.0
2018-Jun-18 21:29N 60°01' E 028°30'0 0.0
2018-Jun-18 20:59N 60°01' E 028°30'0 0.0
2018-Jun-18 20:26N 60°01' E 028°30'0 0.0
2018-Jun-18 19:54N 60°01' E 028°29'0 0.0
2018-Jun-18 19:28N 60°01' E 028°29'0 0.0
2018-Jun-18 18:58N 60°01' E 028°29'0 0.0
2018-Jun-18 18:29N 60°01' E 028°29'0 0.0
2018-Jun-18 17:54N 60°01' E 028°30'0 0.0
2018-Jun-18 17:30N 60°01' E 028°29'0 0.0
2018-Jun-18 17:00N 60°01' E 028°29'0 0.0
2018-Jun-18 16:30N 60°01' E 028°29'0 0.0
2018-Jun-18 15:57N 60°01' E 028°29'0 0.0
2018-Jun-18 15:17N 60°01' E 028°29'0 0.0
2018-Jun-18 14:51N 60°01' E 028°29'0 0.0
2018-Jun-18 14:29N 60°01' E 028°29'0 0.0
2018-Jun-18 13:59N 60°01' E 028°29'0 0.0
2018-Jun-18 13:26N 60°01' E 028°29'0 0.1
2018-Jun-18 12:56N 60°01' E 028°29'0 0.1
2018-Jun-18 12:28N 60°01' E 028°29'0 0.1
2018-Jun-18 12:00N 60°01' E 028°29'0 0.1
2018-Jun-18 11:28N 60°01' E 028°29'0 0.0
2018-Jun-18 10:55N 60°01' E 028°29'0 0.0
2018-Jun-18 10:30N 60°01' E 028°29'0 0.0
2018-Jun-18 10:00N 60°01' E 028°29'0 0.0
2018-Jun-18 09:30N 60°01' E 028°29'0 0.0
2018-Jun-18 09:00N 60°01' E 028°29'0 0.0
2018-Jun-18 08:27N 60°01' E 028°29'0 0.1
2018-Jun-18 07:59N 60°01' E 028°29'0 0.0
2018-Jun-18 07:29N 60°01' E 028°29'0 0.0
2018-Jun-18 06:56N 60°01' E 028°29'0 0.0
2018-Jun-18 06:20N 60°01' E 028°29'0 0.0
2018-Jun-18 05:59N 60°01' E 028°29'0 0.0
2018-Jun-18 05:28N 60°01' E 028°29'0 0.0
2018-Jun-18 04:58N 60°01' E 028°29'0 0.0
2018-Jun-18 04:28N 60°01' E 028°29'0 0.0
2018-Jun-18 03:58N 60°01' E 028°29'0 0.0
2018-Jun-18 03:30N 60°01' E 028°29'0 0.0
2018-Jun-18 03:00N 60°01' E 028°29'0 0.0
2018-Jun-18 02:30N 60°01' E 028°29'0 0.0
2018-Jun-18 02:00N 60°01' E 028°29'0 0.0
2018-Jun-18 01:30N 60°01' E 028°29'0 0.0
2018-Jun-18 00:59N 60°01' E 028°29'0 0.0
2018-Jun-18 00:29N 60°01' E 028°29'0 0.0
2018-Jun-17 23:59N 60°01' E 028°29'0 0.0
2018-Jun-17 23:26N 60°01' E 028°29'0 0.0
2018-Jun-17 22:52N 60°01' E 028°29'0 0.0
2018-Jun-17 22:28N 60°01' E 028°29'0 0.0
2018-Jun-17 21:58N 60°01' E 028°29'0 0.0
2018-Jun-17 21:28N 60°01' E 028°29'0 0.0
2018-Jun-17 20:51N 60°01' E 028°29'0 0.0
2018-Jun-17 20:30N 60°01' E 028°29'0 0.0
2018-Jun-17 20:00N 60°01' E 028°29'0 0.0
2018-Jun-17 19:30N 60°01' E 028°29'0 0.1
2018-Jun-17 18:57N 60°01' E 028°29'0 0.0
2018-Jun-17 18:23N 60°01' E 028°29'0 0.0
2018-Jun-17 17:59N 60°01' E 028°29'0 0.1
2018-Jun-17 17:29N 60°01' E 028°29'0 0.0
2018-Jun-17 16:59N 60°01' E 028°29'0 0.0
2018-Jun-17 16:22N 60°01' E 028°29'0 0.0
2018-Jun-17 15:46N 60°01' E 028°29'0 0.0
2018-Jun-17 15:22N 60°01' E 028°29'0 0.0
2018-Jun-17 14:58N 60°01' E 028°29'0 0.0
2018-Jun-17 14:25N 60°01' E 028°29'0 0.0
2018-Jun-17 13:51N 60°01' E 028°29'0 0.0
2018-Jun-17 13:30N 60°01' E 028°29'0 0.0
2018-Jun-17 13:00N 60°01' E 028°29'0 0.0
2018-Jun-17 12:30N 60°01' E 028°29'0 0.0
2018-Jun-17 11:54N 60°01' E 028°29'0 0.0
2018-Jun-17 11:26N 60°01' E 028°29'0 0.0
2018-Jun-17 10:59N 60°01' E 028°29'0 0.1
2018-Jun-17 10:29N 60°01' E 028°29'0 0.0
2018-Jun-17 09:56N 60°01' E 028°29'0 0.1
2018-Jun-17 09:22N 60°01' E 028°29'0 0.1
2018-Jun-17 08:58N 60°01' E 028°29'0 0.1
2018-Jun-17 08:30N 60°01' E 028°29'1 2.8
2018-Jun-17 08:01N 60°02' E 028°28'4 8.7
2018-Jun-17 07:30N 60°05' E 028°21'511.0
2018-Jun-17 07:01N 60°07' E 028°11'611.0
2018-Jun-17 06:30N 60°09' E 028°00'511.0
2018-Jun-17 06:00N 60°10' E 027°50'510.3
2018-Jun-17 05:30N 60°09' E 027°40'611.3
2018-Jun-17 05:00N 60°06' E 027°30'611.2
2018-Jun-17 04:30N 60°03' E 027°21'611.4
2018-Jun-17 04:00N 60°00' E 027°11'510.8
2018-Jun-17 03:31N 59°58' E 027°01'611.4
2018-Jun-17 03:00N 59°59' E 026°50'611.3
2018-Jun-17 02:30N 59°59' E 026°38'611.6
2018-Jun-17 02:00N 59°58' E 026°27'611.4
2018-Jun-17 01:28N 59°56' E 026°16'511.0
2018-Jun-17 00:59N 59°55' E 026°05'510.9
2018-Jun-17 00:30N 59°53' E 025°55'511.0
2018-Jun-17 00:00N 59°52' E 025°45'811.0
2018-Jun-16 23:15N 59°50' E 025°29'311.1
2018-Jun-16 23:00N 59°50' E 025°23'611.0
2018-Jun-16 22:26N 59°48' E 025°11'511.0
2018-Jun-16 22:00N 59°47' E 025°02'611.1
2018-Jun-16 21:30N 59°46' E 024°51'611.1
2018-Jun-16 21:00N 59°45' E 024°41'611.3
2018-Jun-16 20:30N 59°43' E 024°30'5 9.8
2018-Jun-16 20:00N 59°40' E 024°22'510.7
2018-Jun-16 19:30N 59°35' E 024°23'510.9
2018-Jun-16 19:00N 59°31' E 024°29'2 4.2
2018-Jun-16 18:30N 59°29' E 024°32'0 0.2
2018-Jun-16 18:00N 59°29' E 024°32'0 0.0
2018-Jun-16 17:30N 59°29' E 024°32'0 0.0
2018-Jun-16 17:00N 59°29' E 024°32'0 0.0
2018-Jun-16 16:30N 59°29' E 024°32'0 0.0
2018-Jun-16 15:59N 59°29' E 024°32'0 0.0
2018-Jun-16 15:29N 59°29' E 024°32'0 0.0
2018-Jun-16 14:59N 59°29' E 024°32'0 0.0
2018-Jun-16 14:29N 59°29' E 024°32'0 0.0
2018-Jun-16 13:59N 59°29' E 024°32'0 0.0
2018-Jun-16 13:28N 59°29' E 024°32'0 0.0
2018-Jun-16 12:58N 59°29' E 024°32'0 0.2
2018-Jun-16 12:28N 59°29' E 024°32'1 1.3
2018-Jun-16 12:00N 59°29' E 024°31'3 6.1
2018-Jun-16 11:30N 59°30' E 024°25'5 9.6
2018-Jun-16 11:00N 59°29' E 024°16'4 8.2
2018-Jun-16 10:30N 59°29' E 024°08'4 9.0
2018-Jun-16 10:00N 59°29' E 023°59'611.1
2018-Jun-16 09:29N 59°28' E 023°48'511.2
2018-Jun-16 09:00N 59°28' E 023°37'611.0
2018-Jun-16 08:29N 59°27' E 023°26'611.3
2018-Jun-16 08:00N 59°27' E 023°15'611.3
2018-Jun-16 07:30N 59°26' E 023°04'611.4
2018-Jun-16 07:00N 59°26' E 022°53'611.3
2018-Jun-16 06:30N 59°25' E 022°42'711.2
2018-Jun-16 05:50N 59°21' E 022°30'5411.0
2018-Jun-16 00:56N 58°41' E 021°20'1411.1
2018-Jun-15 23:40N 58°29' E 021°06'19210.8
2018-Jun-15 05:54N 55°54' E 017°35'511.5
2018-Jun-15 05:28N 55°53' E 017°26'6311.4
2018-Jun-14 23:56N 55°38' E 015°38'511.5
2018-Jun-14 23:30N 55°37' E 015°29'611.3
2018-Jun-14 23:00N 55°34' E 015°20'611.3
2018-Jun-14 22:30N 55°32' E 015°11'611.4
2018-Jun-14 22:00N 55°30' E 015°01'611.6
2018-Jun-14 21:30N 55°27' E 014°52'511.2
2018-Jun-14 21:00N 55°25' E 014°43'611.1
2018-Jun-14 20:30N 55°21' E 014°36'611.3
2018-Jun-14 20:00N 55°17' E 014°30'511.2
2018-Jun-14 19:30N 55°12' E 014°24'611.1
2018-Jun-14 19:00N 55°11' E 014°15'1811.0
2018-Jun-14 17:20N 55°11' E 013°43'2011.3
2018-Jun-14 15:32N 55°14' E 013°07'011.5
2018-Jun-14 15:30N 55°14' E 013°07'611.8
2018-Jun-14 15:00N 55°15' E 012°56'611.5
2018-Jun-14 14:30N 55°16' E 012°47'611.0
2018-Jun-14 14:00N 55°18' E 012°38'5 9.6
2018-Jun-14 13:30N 55°23' E 012°39'5 9.3
2018-Jun-14 12:59N 55°28' E 012°41'4 8.3
2018-Jun-14 12:30N 55°31' E 012°45'5 9.3
2018-Jun-14 12:00N 55°35' E 012°50'5 9.5
2018-Jun-14 11:30N 55°38' E 012°55'510.7
2018-Jun-14 11:00N 55°43' E 012°52'611.6
2018-Jun-14 10:30N 55°48' E 012°47'612.0
2018-Jun-14 10:00N 55°54' E 012°44'713.0
2018-Jun-14 09:30N 56°00' E 012°40'612.6
2018-Jun-14 09:00N 56°06' E 012°34'8310.0
2018-Jun-14 00:39N 57°21' E 011°29'211.8
2018-Jun-14 00:30N 57°22' E 011°28'611.5
2018-Jun-14 00:00N 57°28' E 011°25'611.7
2018-Jun-13 23:30N 57°32' E 011°16'611.3
2018-Jun-13 23:00N 57°36' E 011°09'611.4
2018-Jun-13 22:29N 57°39' E 011°00'811.7
2018-Jun-13 21:49N 57°45' E 010°49'411.3
2018-Jun-13 21:26N 57°48' E 010°43'812.7
2018-Jun-13 20:47N 57°48' E 010°28'3011.5
2018-Jun-13 18:13N 57°43' E 009°33'311.4
2018-Jun-13 17:57N 57°43' E 009°27'511.2
2018-Jun-13 17:29N 57°43' E 009°18'510.7
2018-Jun-13 16:59N 57°41' E 009°08'344 7.8
2018-Jun-11 21:08N 52°58' E 003°23'1 9.6
2018-Jun-11 20:59N 52°57' E 003°22'7 9.4
2018-Jun-11 20:16N 52°51' E 003°17'2 9.1
2018-Jun-11 20:00N 52°49' E 003°15'5 9.1
2018-Jun-11 19:30N 52°45' E 003°11'4 8.8
2018-Jun-11 19:00N 52°41' E 003°08'7 8.8
2018-Jun-11 18:12N 52°35' E 003°02'3 8.7
2018-Jun-11 17:55N 52°33' E 003°00'5 8.9
2018-Jun-11 17:22N 52°29' E 002°57'5 9.4
2018-Jun-11 16:48N 52°24' E 002°52'4 9.7
2018-Jun-11 16:24N 52°20' E 002°49'510.1
2018-Jun-11 15:53N 52°16' E 002°45'410.2
2018-Jun-11 15:30N 52°12' E 002°42'510.6
2018-Jun-11 14:59N 52°08' E 002°37'610.8
2018-Jun-11 14:27N 52°03' E 002°32'511.1
2018-Jun-11 14:00N 51°59' E 002°27'611.5
2018-Jun-11 13:30N 51°55' E 002°21'611.8
2018-Jun-11 12:58N 51°49' E 002°15'611.9
2018-Jun-11 12:27N 51°45' E 002°09'511.9
2018-Jun-11 12:00N 51°40' E 002°05'611.5
2018-Jun-11 11:30N 51°36' E 001°59'611.1
2018-Jun-11 11:00N 51°33' E 001°51'510.8
2018-Jun-11 10:30N 51°31' E 001°43'510.2
2018-Jun-11 10:00N 51°29' E 001°35'5 9.7
2018-Jun-11 09:30N 51°26' E 001°30'3 6.4
2018-Jun-11 09:00N 51°27' E 001°26'611.9
2018-Jun-11 08:29N 51°29' E 001°17'611.7
2018-Jun-11 08:00N 51°29' E 001°07'2911.5
2018-Jun-11 05:30N 51°27' E 000°22'  
Track history (hours):
 
Tides and Currents Weather Stations Pressure Air Temp Water Temp Dewpoint Dewpoint Depression Visibility Wind Speed Wind Dir Waves Ship Positions

Baltic Freedom

Last reported at 2018-Jun-20 10:15 UTC. Time now 2018-Jun-20 11:14 UTC.
Position N 60°19' E 028°44'.

Length 182 m; draft 6.9 m.

Type: Ship. MMSI: 229881000.

Date/timePositionNaut miles runAvg speedWind from/ knotsBaromVisibWave heightAir tempDewpointWater temp
2018-Jun-20 10:15N 60°19' E 028°44'0 0.0
2018-Jun-20 09:46N 60°19' E 028°44'0 0.0
2018-Jun-20 09:30N 60°19' E 028°44'0 0.0
2018-Jun-20 08:49N 60°19' E 028°44'0 0.0
2018-Jun-20 08:22N 60°19' E 028°44'0 0.0
2018-Jun-20 07:59N 60°19' E 028°44'0 0.0
2018-Jun-20 07:28N 60°19' E 028°44'0 0.0
2018-Jun-20 06:58N 60°19' E 028°44'0 0.0
2018-Jun-20 06:27N 60°19' E 028°44'0 0.0
2018-Jun-20 05:57N 60°19' E 028°44'0 0.0
2018-Jun-20 05:28N 60°19' E 028°44'0 0.0
2018-Jun-20 05:00N 60°19' E 028°44'0 0.0
2018-Jun-20 04:30N 60°19' E 028°44'0 0.0
2018-Jun-20 03:57N 60°19' E 028°44'0 0.0
2018-Jun-20 03:29N 60°19' E 028°44'0 0.0
2018-Jun-20 02:59N 60°19' E 028°44'0 0.0
2018-Jun-20 02:28N 60°19' E 028°44'0 0.0
2018-Jun-20 01:59N 60°19' E 028°44'0 0.0
2018-Jun-20 01:29N 60°19' E 028°44'0 0.0
2018-Jun-20 01:00N 60°19' E 028°44'0 0.0
2018-Jun-20 00:28N 60°19' E 028°44'0 0.0
2018-Jun-19 23:59N 60°19' E 028°44'0 0.1
2018-Jun-19 23:30N 60°19' E 028°44'1 2.7
2018-Jun-19 23:00N 60°18' E 028°44'4 7.1
2018-Jun-19 22:31N 60°15' E 028°49'4 8.5
2018-Jun-19 22:00N 60°11' E 028°44'5 9.5
2018-Jun-19 21:30N 60°09' E 028°36'612.0
2018-Jun-19 21:01N 60°06' E 028°26'4 8.8
2018-Jun-19 20:30N 60°03' E 028°33'2 3.8
2018-Jun-19 20:00N 60°01' E 028°30'0 0.6
2018-Jun-19 19:30N 60°01' E 028°30'0 0.0
2018-Jun-19 18:57N 60°01' E 028°30'0 0.1
2018-Jun-19 18:29N 60°01' E 028°30'0 0.1
2018-Jun-19 17:56N 60°01' E 028°30'0 0.0
2018-Jun-19 17:30N 60°01' E 028°30'0 0.1
2018-Jun-19 16:58N 60°01' E 028°30'0 0.0
2018-Jun-19 16:29N 60°01' E 028°30'0 0.0
2018-Jun-19 15:55N 60°01' E 028°30'0 0.0
2018-Jun-19 15:25N 60°01' E 028°30'0 0.0
2018-Jun-19 15:01N 60°01' E 028°30'0 0.0
2018-Jun-19 14:29N 60°01' E 028°30'0 0.2
2018-Jun-19 14:00N 60°01' E 028°30'0 0.0
2018-Jun-19 13:30N 60°01' E 028°30'0 0.0
2018-Jun-19 12:57N 60°01' E 028°30'0 0.2
2018-Jun-19 12:29N 60°01' E 028°29'0 0.0
2018-Jun-19 11:59N 60°01' E 028°29'0 0.0
2018-Jun-19 11:29N 60°01' E 028°29'0 0.0
2018-Jun-19 10:59N 60°01' E 028°29'0 0.0
2018-Jun-19 10:26N 60°01' E 028°29'0 0.1
2018-Jun-19 10:00N 60°01' E 028°29'0 0.0
2018-Jun-19 09:26N 60°01' E 028°29'0 0.0
2018-Jun-19 08:58N 60°01' E 028°29'0 0.0
2018-Jun-19 08:28N 60°01' E 028°29'0 0.0
2018-Jun-19 07:58N 60°01' E 028°29'0 0.0
2018-Jun-19 07:30N 60°01' E 028°29'0 0.0
2018-Jun-19 07:00N 60°01' E 028°29'0 0.0
2018-Jun-19 06:30N 60°01' E 028°29'0 0.0
2018-Jun-19 06:00N 60°01' E 028°29'0 0.0
2018-Jun-19 05:23N 60°01' E 028°29'0 0.0
2018-Jun-19 04:59N 60°01' E 028°29'0 0.0
2018-Jun-19 04:31N 60°01' E 028°29'0 0.0
2018-Jun-19 03:59N 60°01' E 028°29'0 0.0
2018-Jun-19 03:28N 60°01' E 028°29'0 0.0
2018-Jun-19 02:59N 60°01' E 028°29'0 0.0
2018-Jun-19 02:28N 60°01' E 028°29'0 0.0
2018-Jun-19 01:58N 60°01' E 028°30'0 0.0
2018-Jun-19 01:28N 60°01' E 028°30'0 0.0
2018-Jun-19 00:54N 60°01' E 028°30'0 0.0
2018-Jun-19 00:30N 60°01' E 028°30'0 0.0
2018-Jun-19 00:00N 60°01' E 028°30'0 0.0
2018-Jun-18 23:30N 60°01' E 028°30'0 0.0
2018-Jun-18 22:57N 60°01' E 028°30'0 0.0
2018-Jun-18 22:27N 60°01' E 028°30'0 0.0
2018-Jun-18 21:59N 60°01' E 028°30'0 0.0
2018-Jun-18 21:29N 60°01' E 028°30'0 0.0
2018-Jun-18 20:59N 60°01' E 028°30'0 0.0
2018-Jun-18 20:26N 60°01' E 028°30'0 0.0
2018-Jun-18 19:54N 60°01' E 028°29'0 0.0
2018-Jun-18 19:28N 60°01' E 028°29'0 0.0
2018-Jun-18 18:58N 60°01' E 028°29'0 0.0
2018-Jun-18 18:29N 60°01' E 028°29'0 0.0
2018-Jun-18 17:54N 60°01' E 028°30'0 0.0
2018-Jun-18 17:30N 60°01' E 028°29'0 0.0
2018-Jun-18 17:00N 60°01' E 028°29'0 0.0
2018-Jun-18 16:30N 60°01' E 028°29'0 0.0
2018-Jun-18 15:57N 60°01' E 028°29'0 0.0
2018-Jun-18 15:17N 60°01' E 028°29'0 0.0
2018-Jun-18 14:51N 60°01' E 028°29'0 0.0
2018-Jun-18 14:29N 60°01' E 028°29'0 0.0
2018-Jun-18 13:59N 60°01' E 028°29'0 0.0
2018-Jun-18 13:26N 60°01' E 028°29'0 0.1
2018-Jun-18 12:56N 60°01' E 028°29'0 0.1
2018-Jun-18 12:28N 60°01' E 028°29'0 0.1
2018-Jun-18 12:00N 60°01' E 028°29'0 0.1
2018-Jun-18 11:28N 60°01' E 028°29'0 0.0
2018-Jun-18 10:55N 60°01' E 028°29'0 0.0
2018-Jun-18 10:30N 60°01' E 028°29'0 0.0
2018-Jun-18 10:00N 60°01' E 028°29'0 0.0
2018-Jun-18 09:30N 60°01' E 028°29'0 0.0
2018-Jun-18 09:00N 60°01' E 028°29'0 0.0
2018-Jun-18 08:27N 60°01' E 028°29'0 0.1
2018-Jun-18 07:59N 60°01' E 028°29'0 0.0
2018-Jun-18 07:29N 60°01' E 028°29'0 0.0
2018-Jun-18 06:56N 60°01' E 028°29'0 0.0
2018-Jun-18 06:20N 60°01' E 028°29'0 0.0
2018-Jun-18 05:59N 60°01' E 028°29'0 0.0
2018-Jun-18 05:28N 60°01' E 028°29'0 0.0
2018-Jun-18 04:58N 60°01' E 028°29'0 0.0
2018-Jun-18 04:28N 60°01' E 028°29'0 0.0
2018-Jun-18 03:58N 60°01' E 028°29'0 0.0
2018-Jun-18 03:30N 60°01' E 028°29'0 0.0
2018-Jun-18 03:00N 60°01' E 028°29'0 0.0
2018-Jun-18 02:30N 60°01' E 028°29'0 0.0
2018-Jun-18 02:00N 60°01' E 028°29'0 0.0
2018-Jun-18 01:30N 60°01' E 028°29'0 0.0
2018-Jun-18 00:59N 60°01' E 028°29'0 0.0
2018-Jun-18 00:29N 60°01' E 028°29'0 0.0
2018-Jun-17 23:59N 60°01' E 028°29'0 0.0
2018-Jun-17 23:26N 60°01' E 028°29'0 0.0
2018-Jun-17 22:52N 60°01' E 028°29'0 0.0
2018-Jun-17 22:28N 60°01' E 028°29'0 0.0
2018-Jun-17 21:58N 60°01' E 028°29'0 0.0
2018-Jun-17 21:28N 60°01' E 028°29'0 0.0
2018-Jun-17 20:51N 60°01' E 028°29'0 0.0
2018-Jun-17 20:30N 60°01' E 028°29'0 0.0
2018-Jun-17 20:00N 60°01' E 028°29'0 0.0
2018-Jun-17 19:30N 60°01' E 028°29'0 0.1
2018-Jun-17 18:57N 60°01' E 028°29'0 0.0
2018-Jun-17 18:23N 60°01' E 028°29'0 0.0
2018-Jun-17 17:59N 60°01' E 028°29'0 0.1
2018-Jun-17 17:29N 60°01' E 028°29'0 0.0
2018-Jun-17 16:59N 60°01' E 028°29'0 0.0
2018-Jun-17 16:22N 60°01' E 028°29'0 0.0
2018-Jun-17 15:46N 60°01' E 028°29'0 0.0
2018-Jun-17 15:22N 60°01' E 028°29'0 0.0
2018-Jun-17 14:58N 60°01' E 028°29'0 0.0
2018-Jun-17 14:25N 60°01' E 028°29'0 0.0
2018-Jun-17 13:51N 60°01' E 028°29'0 0.0
2018-Jun-17 13:30N 60°01' E 028°29'0 0.0
2018-Jun-17 13:00N 60°01' E 028°29'0 0.0
2018-Jun-17 12:30N 60°01' E 028°29'0 0.0
2018-Jun-17 11:54N 60°01' E 028°29'0 0.0
2018-Jun-17 11:26N 60°01' E 028°29'0 0.0
2018-Jun-17 10:59N 60°01' E 028°29'0 0.1
2018-Jun-17 10:29N 60°01' E 028°29'0 0.0
2018-Jun-17 09:56N 60°01' E 028°29'0 0.1
2018-Jun-17 09:22N 60°01' E 028°29'0 0.1
2018-Jun-17 08:58N 60°01' E 028°29'0 0.1
2018-Jun-17 08:30N 60°01' E 028°29'1 2.8
2018-Jun-17 08:01N 60°02' E 028°28'4 8.7
2018-Jun-17 07:30N 60°05' E 028°21'511.0
2018-Jun-17 07:01N 60°07' E 028°11'611.0
2018-Jun-17 06:30N 60°09' E 028°00'511.0
2018-Jun-17 06:00N 60°10' E 027°50'510.3
2018-Jun-17 05:30N 60°09' E 027°40'611.3
2018-Jun-17 05:00N 60°06' E 027°30'611.2
2018-Jun-17 04:30N 60°03' E 027°21'611.4
2018-Jun-17 04:00N 60°00' E 027°11'510.8
2018-Jun-17 03:31N 59°58' E 027°01'611.4
2018-Jun-17 03:00N 59°59' E 026°50'611.3
2018-Jun-17 02:30N 59°59' E 026°38'611.6
2018-Jun-17 02:00N 59°58' E 026°27'611.4
2018-Jun-17 01:28N 59°56' E 026°16'511.0
2018-Jun-17 00:59N 59°55' E 026°05'510.9
2018-Jun-17 00:30N 59°53' E 025°55'511.0
2018-Jun-17 00:00N 59°52' E 025°45'811.0
2018-Jun-16 23:15N 59°50' E 025°29'311.1
2018-Jun-16 23:00N 59°50' E 025°23'611.0
2018-Jun-16 22:26N 59°48' E 025°11'511.0
2018-Jun-16 22:00N 59°47' E 025°02'611.1
2018-Jun-16 21:30N 59°46' E 024°51'611.1
2018-Jun-16 21:00N 59°45' E 024°41'611.3
2018-Jun-16 20:30N 59°43' E 024°30'5 9.8
2018-Jun-16 20:00N 59°40' E 024°22'510.7
2018-Jun-16 19:30N 59°35' E 024°23'510.9
2018-Jun-16 19:00N 59°31' E 024°29'2 4.2
2018-Jun-16 18:30N 59°29' E 024°32'0 0.2
2018-Jun-16 18:00N 59°29' E 024°32'0 0.0
2018-Jun-16 17:30N 59°29' E 024°32'0 0.0
2018-Jun-16 17:00N 59°29' E 024°32'0 0.0
2018-Jun-16 16:30N 59°29' E 024°32'0 0.0
2018-Jun-16 15:59N 59°29' E 024°32'0 0.0
2018-Jun-16 15:29N 59°29' E 024°32'0 0.0
2018-Jun-16 14:59N 59°29' E 024°32'0 0.0
2018-Jun-16 14:29N 59°29' E 024°32'0 0.0
2018-Jun-16 13:59N 59°29' E 024°32'0 0.0
2018-Jun-16 13:28N 59°29' E 024°32'0 0.0
2018-Jun-16 12:58N 59°29' E 024°32'0 0.2
2018-Jun-16 12:28N 59°29' E 024°32'1 1.3
2018-Jun-16 12:00N 59°29' E 024°31'3 6.1
2018-Jun-16 11:30N 59°30' E 024°25'5 9.6
2018-Jun-16 11:00N 59°29' E 024°16'4 8.2
2018-Jun-16 10:30N 59°29' E 024°08'4 9.0
2018-Jun-16 10:00N 59°29' E 023°59'611.1
2018-Jun-16 09:29N 59°28' E 023°48'511.2
2018-Jun-16 09:00N 59°28' E 023°37'611.0
2018-Jun-16 08:29N 59°27' E 023°26'611.3
2018-Jun-16 08:00N 59°27' E 023°15'611.3
2018-Jun-16 07:30N 59°26' E 023°04'611.4
2018-Jun-16 07:00N 59°26' E 022°53'611.3
2018-Jun-16 06:30N 59°25' E 022°42'711.2
2018-Jun-16 05:50N 59°21' E 022°30'5411.0
2018-Jun-16 00:56N 58°41' E 021°20'1411.1
2018-Jun-15 23:40N 58°29' E 021°06'19210.8
2018-Jun-15 05:54N 55°54' E 017°35'511.5
2018-Jun-15 05:28N 55°53' E 017°26'6311.4
2018-Jun-14 23:56N 55°38' E 015°38'511.5
2018-Jun-14 23:30N 55°37' E 015°29'611.3
2018-Jun-14 23:00N 55°34' E 015°20'611.3
2018-Jun-14 22:30N 55°32' E 015°11'611.4
2018-Jun-14 22:00N 55°30' E 015°01'611.6
2018-Jun-14 21:30N 55°27' E 014°52'511.2
2018-Jun-14 21:00N 55°25' E 014°43'611.1
2018-Jun-14 20:30N 55°21' E 014°36'611.3
2018-Jun-14 20:00N 55°17' E 014°30'511.2
2018-Jun-14 19:30N 55°12' E 014°24'611.1
2018-Jun-14 19:00N 55°11' E 014°15'1811.0
2018-Jun-14 17:20N 55°11' E 013°43'2011.3
2018-Jun-14 15:32N 55°14' E 013°07'011.5
2018-Jun-14 15:30N 55°14' E 013°07'611.8
2018-Jun-14 15:00N 55°15' E 012°56'611.5
2018-Jun-14 14:30N 55°16' E 012°47'611.0
2018-Jun-14 14:00N 55°18' E 012°38'5 9.6
2018-Jun-14 13:30N 55°23' E 012°39'5 9.3
2018-Jun-14 12:59N 55°28' E 012°41'4 8.3
2018-Jun-14 12:30N 55°31' E 012°45'5 9.3
2018-Jun-14 12:00N 55°35' E 012°50'5 9.5
2018-Jun-14 11:30N 55°38' E 012°55'510.7
2018-Jun-14 11:00N 55°43' E 012°52'611.6
2018-Jun-14 10:30N 55°48' E 012°47'612.0
2018-Jun-14 10:00N 55°54' E 012°44'713.0
2018-Jun-14 09:30N 56°00' E 012°40'612.6
2018-Jun-14 09:00N 56°06' E 012°34'8310.0
2018-Jun-14 00:39N 57°21' E 011°29'211.8
2018-Jun-14 00:30N 57°22' E 011°28'611.5
2018-Jun-14 00:00N 57°28' E 011°25'611.7
2018-Jun-13 23:30N 57°32' E 011°16'611.3
2018-Jun-13 23:00N 57°36' E 011°09'611.4
2018-Jun-13 22:29N 57°39' E 011°00'811.7
2018-Jun-13 21:49N 57°45' E 010°49'411.3
2018-Jun-13 21:26N 57°48' E 010°43'812.7
2018-Jun-13 20:47N 57°48' E 010°28'3011.5
2018-Jun-13 18:13N 57°43' E 009°33'311.4
2018-Jun-13 17:57N 57°43' E 009°27'511.2
2018-Jun-13 17:29N 57°43' E 009°18'510.7
2018-Jun-13 16:59N 57°41' E 009°08'344 7.8
2018-Jun-11 21:08N 52°58' E 003°23'1 9.6
2018-Jun-11 20:59N 52°57' E 003°22'7 9.4
2018-Jun-11 20:16N 52°51' E 003°17'2 9.1
2018-Jun-11 20:00N 52°49' E 003°15'5 9.1
2018-Jun-11 19:30N 52°45' E 003°11'4 8.8
2018-Jun-11 19:00N 52°41' E 003°08'7 8.8
2018-Jun-11 18:12N 52°35' E 003°02'3 8.7
2018-Jun-11 17:55N 52°33' E 003°00'5 8.9
2018-Jun-11 17:22N 52°29' E 002°57'5 9.4
2018-Jun-11 16:48N 52°24' E 002°52'4 9.7
2018-Jun-11 16:24N 52°20' E 002°49'510.1
2018-Jun-11 15:53N 52°16' E 002°45'410.2
2018-Jun-11 15:30N 52°12' E 002°42'510.6
2018-Jun-11 14:59N 52°08' E 002°37'610.8
2018-Jun-11 14:27N 52°03' E 002°32'511.1
2018-Jun-11 14:00N 51°59' E 002°27'611.5
2018-Jun-11 13:30N 51°55' E 002°21'611.8
2018-Jun-11 12:58N 51°49' E 002°15'611.9
2018-Jun-11 12:27N 51°45' E 002°09'511.9
2018-Jun-11 12:00N 51°40' E 002°05'611.5
2018-Jun-11 11:30N 51°36' E 001°59'611.1
2018-Jun-11 11:00N 51°33' E 001°51'510.8
2018-Jun-11 10:30N 51°31' E 001°43'510.2
2018-Jun-11 10:00N 51°29' E 001°35'5 9.7
2018-Jun-11 09:30N 51°26' E 001°30'3 6.4
2018-Jun-11 09:00N 51°27' E 001°26'611.9
2018-Jun-11 08:29N 51°29' E 001°17'611.7
2018-Jun-11 08:00N 51°29' E 001°07'2911.5
2018-Jun-11 05:30N 51°27' E 000°22'  

Dump ship's entire track history